createdAt,value
2019-05-19T00:00:15.983Z,14.50
2019-05-19T00:02:46.191Z,14.50
2019-05-19T00:05:16.601Z,14.50
2019-05-19T00:07:46.066Z,14.50
2019-05-19T00:10:15.582Z,14.50
2019-05-19T00:12:45.040Z,14.50
2019-05-19T00:15:14.552Z,14.50
2019-05-19T00:17:44.011Z,14.50
2019-05-19T00:20:14.387Z,14.50
2019-05-19T00:22:43.896Z,14.50
2019-05-19T00:25:13.816Z,14.50
2019-05-19T00:27:43.537Z,14.40
2019-05-19T00:30:13.639Z,14.40
2019-05-19T00:32:43.341Z,14.30
2019-05-19T00:35:13.061Z,14.20
2019-05-19T00:37:42.563Z,14.20
2019-05-19T00:40:12.392Z,14.20
2019-05-19T00:42:41.836Z,14.20
2019-05-19T00:45:11.935Z,14.10
2019-05-19T00:47:41.882Z,14.10
2019-05-19T00:50:12.757Z,14.20
2019-05-19T00:52:42.154Z,14.20
2019-05-19T00:55:11.832Z,14.20
2019-05-19T00:57:41.752Z,14.20
2019-05-19T01:00:12.786Z,14.10
2019-05-19T01:02:42.313Z,14.10
2019-05-19T01:05:12.388Z,14.10
2019-05-19T01:07:41.891Z,14.10
2019-05-19T01:10:11.889Z,14.00
2019-05-19T01:12:41.381Z,14.00
2019-05-19T01:15:11.480Z,14.00
2019-05-19T01:17:40.939Z,14.00
2019-05-19T01:20:11.339Z,13.90
2019-05-19T01:22:40.804Z,13.80
2019-05-19T01:25:11.445Z,13.80
2019-05-19T01:27:41.015Z,13.80
2019-05-19T01:30:11.894Z,13.80
2019-05-19T01:32:41.251Z,13.80
2019-05-19T01:35:11.369Z,13.70
2019-05-19T01:37:40.821Z,13.70
2019-05-19T01:40:10.911Z,13.70
2019-05-19T01:42:40.380Z,13.60
2019-05-19T01:45:10.453Z,13.60
2019-05-19T01:47:39.826Z,13.60
2019-05-19T01:50:18.491Z,13.60
2019-05-19T01:52:41.481Z,13.60
2019-05-19T01:55:12.671Z,13.50
2019-05-19T01:57:42.118Z,13.50
2019-05-19T02:00:12.424Z,13.50
2019-05-19T02:02:41.866Z,13.60
2019-05-19T02:05:11.898Z,13.60
2019-05-19T02:07:41.337Z,13.60
2019-05-19T02:10:11.430Z,13.70
2019-05-19T02:12:40.800Z,13.60
2019-05-19T02:15:11.887Z,13.60
2019-05-19T02:17:41.319Z,13.60
2019-05-19T02:20:11.425Z,13.60
2019-05-19T02:22:40.884Z,13.60
2019-05-19T02:25:11.011Z,13.60
2019-05-19T02:27:40.463Z,13.60
2019-05-19T02:30:10.772Z,13.60
2019-05-19T02:32:40.268Z,13.60
2019-05-19T02:35:10.280Z,13.60
2019-05-19T02:37:39.712Z,13.60
2019-05-19T02:40:10.176Z,13.60
2019-05-19T02:42:41.524Z,13.60
2019-05-19T02:45:12.693Z,13.60
2019-05-19T02:47:43.677Z,13.60
2019-05-19T02:50:14.135Z,13.60
2019-05-19T02:52:46.514Z,13.50
2019-05-19T02:55:17.347Z,13.50
2019-05-19T02:57:47.748Z,13.50
2019-05-19T03:00:18.040Z,13.50
2019-05-19T03:02:47.490Z,13.40
2019-05-19T03:05:17.005Z,13.50
2019-05-19T03:07:47.572Z,13.50
2019-05-19T03:10:17.476Z,13.50
2019-05-19T03:12:46.854Z,13.50
2019-05-19T03:15:16.300Z,13.50
2019-05-19T03:17:45.737Z,13.50
2019-05-19T03:20:15.617Z,13.50
2019-05-19T03:22:45.055Z,13.50
2019-05-19T03:25:14.813Z,13.50
2019-05-19T03:27:44.191Z,13.50
2019-05-19T03:30:35.129Z,13.50
2019-05-19T03:33:06.230Z,13.50
2019-05-19T03:35:35.669Z,13.50
2019-05-19T03:38:05.187Z,13.50
2019-05-19T03:40:34.649Z,13.50
2019-05-19T03:43:04.348Z,13.50
2019-05-19T03:45:33.761Z,13.40
2019-05-19T03:48:03.208Z,13.40
2019-05-19T03:50:32.649Z,13.40
2019-05-19T03:53:03.428Z,13.40
2019-05-19T03:55:32.851Z,13.30
2019-05-19T03:58:04.231Z,13.30
2019-05-19T04:00:33.754Z,13.30
2019-05-19T04:03:03.382Z,13.30
2019-05-19T04:05:32.923Z,13.30
2019-05-19T04:08:02.303Z,13.30
2019-05-19T04:10:31.832Z,13.30
2019-05-19T04:13:01.205Z,13.30
2019-05-19T04:15:30.662Z,13.40
2019-05-19T04:18:00.321Z,13.40
2019-05-19T04:20:29.761Z,13.40
2019-05-19T04:23:00.139Z,13.40
2019-05-19T04:25:29.528Z,13.40
2019-05-19T04:27:58.977Z,13.40
2019-05-19T04:30:28.434Z,13.40
2019-05-19T04:32:57.890Z,13.40
2019-05-19T04:35:27.411Z,13.40
2019-05-19T04:37:56.851Z,13.40
2019-05-19T04:40:26.286Z,13.50
2019-05-19T04:42:55.741Z,13.50
2019-05-19T04:45:25.328Z,13.50
2019-05-19T04:47:54.774Z,13.50
2019-05-19T04:50:24.185Z,13.50
2019-05-19T04:52:53.832Z,13.60
2019-05-19T04:55:23.333Z,13.60
2019-05-19T04:57:52.780Z,13.60
2019-05-19T05:00:34.816Z,13.50
2019-05-19T05:03:04.305Z,13.60
2019-05-19T05:05:33.795Z,13.60
2019-05-19T05:08:03.187Z,13.60
2019-05-19T05:10:32.566Z,13.70
2019-05-19T05:13:02.030Z,13.70
2019-05-19T05:15:31.463Z,13.70
2019-05-19T05:18:00.919Z,13.70
2019-05-19T05:20:30.295Z,13.70
2019-05-19T05:23:00.036Z,13.80
2019-05-19T05:25:29.553Z,13.80
2019-05-19T05:27:59.246Z,13.80
2019-05-19T05:30:28.630Z,13.80
2019-05-19T05:32:58.169Z,13.80
2019-05-19T05:35:27.540Z,13.90
2019-05-19T05:37:56.906Z,13.90
2019-05-19T05:40:26.273Z,13.90
2019-05-19T05:42:55.708Z,13.90
2019-05-19T05:45:25.089Z,14.00
2019-05-19T05:47:54.744Z,14.00
2019-05-19T05:50:24.317Z,14.00
2019-05-19T05:52:53.789Z,14.10
2019-05-19T05:55:23.419Z,14.10
2019-05-19T05:57:52.852Z,14.20
2019-05-19T06:00:22.438Z,14.20
2019-05-19T06:02:51.852Z,14.30
2019-05-19T06:05:21.432Z,14.20
2019-05-19T06:07:50.891Z,14.30
2019-05-19T06:10:20.331Z,14.30
2019-05-19T06:12:49.799Z,14.40
2019-05-19T06:15:19.315Z,14.40
2019-05-19T06:17:48.692Z,14.40
2019-05-19T06:20:18.479Z,14.40
2019-05-19T06:22:56.645Z,14.40
2019-05-19T06:25:19.022Z,14.40
2019-05-19T06:27:48.466Z,14.40
2019-05-19T06:30:18.384Z,14.40
2019-05-19T06:32:55.530Z,14.40
2019-05-19T06:35:25.011Z,14.40
2019-05-19T06:37:54.748Z,14.40
2019-05-19T06:40:24.250Z,14.50
2019-05-19T06:42:53.704Z,14.50
2019-05-19T06:45:23.154Z,14.50
2019-05-19T06:47:52.593Z,14.50
2019-05-19T06:50:22.087Z,14.50
2019-05-19T06:52:51.605Z,14.40
2019-05-19T06:55:20.995Z,14.40
2019-05-19T06:57:50.462Z,14.40
2019-05-19T07:00:21.755Z,14.40
2019-05-19T07:02:51.263Z,14.50
2019-05-19T07:05:20.621Z,14.40
2019-05-19T07:07:50.063Z,14.40
2019-05-19T07:10:19.441Z,14.40
2019-05-19T07:12:48.948Z,14.30
2019-05-19T07:15:18.640Z,14.40
2019-05-19T07:17:48.068Z,14.50
2019-05-19T07:20:17.515Z,14.50
2019-05-19T07:22:46.996Z,14.50
2019-05-19T07:25:16.536Z,14.50
2019-05-19T07:27:46.011Z,14.60
2019-05-19T07:30:15.933Z,14.70
2019-05-19T07:32:45.436Z,14.60
2019-05-19T07:35:16.133Z,14.60
2019-05-19T07:37:45.641Z,14.60
2019-05-19T07:40:15.628Z,14.60
2019-05-19T07:42:45.012Z,14.60
2019-05-19T07:45:14.869Z,14.60
2019-05-19T07:47:44.247Z,14.60
2019-05-19T07:50:13.720Z,14.70
2019-05-19T07:52:43.618Z,14.70
2019-05-19T07:55:13.562Z,14.70
2019-05-19T07:57:43.460Z,14.70
2019-05-19T08:00:13.060Z,14.70
2019-05-19T08:02:42.500Z,14.70
2019-05-19T08:05:12.252Z,14.70
2019-05-19T08:07:41.761Z,14.80
2019-05-19T08:10:12.164Z,14.80
2019-05-19T08:12:41.544Z,14.90
2019-05-19T08:15:11.344Z,14.90
2019-05-19T08:17:40.809Z,14.90
2019-05-19T08:20:10.573Z,15.00
2019-05-19T08:22:39.928Z,15.10
2019-05-19T08:25:10.135Z,15.10
2019-05-19T08:27:39.819Z,15.00
2019-05-19T08:30:09.930Z,15.00
2019-05-19T08:32:39.444Z,15.10
2019-05-19T08:35:08.896Z,15.20
2019-05-19T08:37:38.279Z,15.30
2019-05-19T08:40:08.357Z,15.30
2019-05-19T08:42:37.724Z,15.40
2019-05-19T08:45:08.327Z,15.50
2019-05-19T08:47:37.785Z,15.50
2019-05-19T08:50:08.467Z,15.40
2019-05-19T08:52:38.044Z,15.40
2019-05-19T08:55:07.924Z,15.40
2019-05-19T08:57:37.351Z,15.40
2019-05-19T09:00:07.333Z,15.60
2019-05-19T09:02:36.788Z,15.50
2019-05-19T09:05:07.203Z,15.20
2019-05-19T09:07:36.651Z,15.20
2019-05-19T09:10:07.923Z,15.20
2019-05-19T09:12:38.275Z,15.20
2019-05-19T09:15:09.909Z,15.30
2019-05-19T09:17:39.347Z,15.30
2019-05-19T09:20:09.143Z,15.40
2019-05-19T09:22:38.577Z,15.30
2019-05-19T09:25:08.360Z,15.30
2019-05-19T09:27:38.279Z,15.30
2019-05-19T09:30:10.727Z,15.50
2019-05-19T09:32:40.210Z,15.50
2019-05-19T09:35:10.006Z,15.70
2019-05-19T09:37:39.400Z,15.90
2019-05-19T09:40:09.462Z,15.90
2019-05-19T09:42:38.891Z,16.00
2019-05-19T09:45:10.752Z,16.10
2019-05-19T09:47:40.202Z,16.00
2019-05-19T09:50:22.337Z,15.90
2019-05-19T09:52:51.788Z,15.90
2019-05-19T09:55:21.324Z,15.80
2019-05-19T09:57:50.775Z,15.90
2019-05-19T10:00:20.653Z,16.10
2019-05-19T10:02:50.105Z,16.10
2019-05-19T10:05:19.546Z,16.40
2019-05-19T10:07:49.015Z,16.60
2019-05-19T10:10:28.481Z,16.60
2019-05-19T10:12:57.939Z,16.60
2019-05-19T10:15:27.770Z,16.80
2019-05-19T10:17:57.196Z,17.00
2019-05-19T10:20:26.576Z,17.20
2019-05-19T10:22:56.351Z,17.30
2019-05-19T10:25:25.865Z,17.50
2019-05-19T10:27:55.248Z,17.60
2019-05-19T10:30:24.767Z,17.50
2019-05-19T10:32:54.156Z,17.40
2019-05-19T10:35:23.763Z,17.40
2019-05-19T10:37:53.292Z,17.50
2019-05-19T10:40:23.636Z,17.50
2019-05-19T10:42:53.523Z,17.50
2019-05-19T10:45:22.963Z,17.40
2019-05-19T10:47:52.417Z,17.50
2019-05-19T10:50:21.911Z,17.60
2019-05-19T10:52:51.284Z,17.60
2019-05-19T10:55:28.484Z,17.80
2019-05-19T10:57:51.931Z,17.90
2019-05-19T11:00:21.470Z,18.10
2019-05-19T11:02:50.911Z,18.10
2019-05-19T11:05:20.353Z,18.20
2019-05-19T11:07:49.712Z,18.20
2019-05-19T11:10:19.576Z,18.30
2019-05-19T11:12:49.014Z,18.40
2019-05-19T11:15:19.030Z,18.20
2019-05-19T11:17:48.484Z,18.00
2019-05-19T11:20:18.005Z,18.20
2019-05-19T11:22:47.459Z,18.20
2019-05-19T11:25:16.884Z,17.90
2019-05-19T11:27:46.311Z,17.80
2019-05-19T11:30:15.987Z,18.00
2019-05-19T11:32:45.347Z,17.90
2019-05-19T11:35:14.913Z,18.00
2019-05-19T11:37:44.457Z,18.00
2019-05-19T11:40:14.201Z,18.30
2019-05-19T11:42:46.767Z,18.10
2019-05-19T11:45:15.283Z,18.10
2019-05-19T11:47:44.750Z,18.30
2019-05-19T11:50:33.872Z,18.30
2019-05-19T11:53:03.410Z,18.10
2019-05-19T11:55:34.036Z,18.30
2019-05-19T11:58:03.437Z,18.40
2019-05-19T12:00:32.808Z,18.50
2019-05-19T12:03:02.256Z,18.60
2019-05-19T12:05:31.652Z,18.80
2019-05-19T12:08:04.500Z,18.90
2019-05-19T12:10:34.316Z,18.70
2019-05-19T12:13:08.908Z,18.70
2019-05-19T12:15:38.522Z,18.70
2019-05-19T12:18:07.926Z,18.50
2019-05-19T12:20:37.367Z,18.50
2019-05-19T12:23:06.890Z,18.40
2019-05-19T12:25:36.274Z,18.20
2019-05-19T12:28:05.705Z,18.20
2019-05-19T12:30:35.160Z,18.10
2019-05-19T12:33:04.684Z,17.90
2019-05-19T12:35:34.195Z,18.00
2019-05-19T12:38:03.640Z,18.20
2019-05-19T12:40:33.009Z,18.10
2019-05-19T12:43:02.444Z,18.30
2019-05-19T12:45:31.884Z,18.50
2019-05-19T12:48:01.311Z,18.50
2019-05-19T12:50:30.750Z,18.50
2019-05-19T12:53:00.146Z,18.60
2019-05-19T12:55:29.674Z,18.70
2019-05-19T12:57:59.179Z,18.50
2019-05-19T13:00:28.535Z,18.60
2019-05-19T13:02:57.920Z,18.70
2019-05-19T13:05:27.555Z,18.60
2019-05-19T13:07:56.988Z,18.60
2019-05-19T13:10:26.384Z,18.70
2019-05-19T13:12:55.827Z,18.70
2019-05-19T13:15:25.253Z,18.50
2019-05-19T13:17:54.667Z,18.50
2019-05-19T13:20:24.263Z,18.50
2019-05-19T13:22:53.863Z,18.60
2019-05-19T13:25:23.331Z,18.70
2019-05-19T13:27:52.699Z,18.70
2019-05-19T13:30:22.069Z,18.90
2019-05-19T13:32:51.550Z,18.90
2019-05-19T13:35:21.210Z,18.90
2019-05-19T13:37:50.683Z,18.90
2019-05-19T13:40:20.211Z,18.70
2019-05-19T13:42:49.640Z,18.60
2019-05-19T13:45:19.725Z,18.70
2019-05-19T13:47:49.121Z,18.80
2019-05-19T13:50:19.080Z,18.80
2019-05-19T13:52:51.091Z,19.00
2019-05-19T13:55:19.527Z,19.40
2019-05-19T13:57:48.985Z,19.50
2019-05-19T14:00:19.876Z,19.50
2019-05-19T14:02:49.496Z,19.50
2019-05-19T14:05:18.936Z,19.50
2019-05-19T14:07:48.372Z,19.60
2019-05-19T14:10:19.800Z,19.60
2019-05-19T14:12:49.227Z,19.80
2019-05-19T14:15:18.651Z,19.90
2019-05-19T14:17:48.171Z,19.90
2019-05-19T14:20:17.679Z,19.90
2019-05-19T14:22:47.037Z,19.80
2019-05-19T14:25:17.487Z,19.50
2019-05-19T14:27:46.931Z,19.30
2019-05-19T14:30:16.631Z,19.20
2019-05-19T14:32:46.008Z,19.10
2019-05-19T14:35:15.441Z,19.20
2019-05-19T14:37:45.900Z,19.30
2019-05-19T14:40:15.691Z,19.30
2019-05-19T14:42:55.939Z,19.40
2019-05-19T14:45:25.459Z,19.60
2019-05-19T14:47:54.889Z,19.80
2019-05-19T14:50:24.312Z,19.90
2019-05-19T14:52:53.826Z,20.00
2019-05-19T14:55:23.245Z,19.80
2019-05-19T14:57:52.629Z,19.40
2019-05-19T15:00:22.420Z,18.70
2019-05-19T15:02:51.868Z,18.20
2019-05-19T15:05:21.401Z,18.10
2019-05-19T15:07:50.829Z,18.20
2019-05-19T15:10:20.676Z,18.10
2019-05-19T15:12:50.141Z,17.80
2019-05-19T15:15:19.681Z,17.60
2019-05-19T15:17:49.136Z,17.60
2019-05-19T15:20:19.561Z,17.30
2019-05-19T15:22:48.936Z,16.90
2019-05-19T15:25:18.292Z,16.70
2019-05-19T15:27:59.215Z,16.70
2019-05-19T15:30:19.353Z,16.80
2019-05-19T15:32:49.180Z,16.70
2019-05-19T15:35:18.781Z,17.00
2019-05-19T15:37:48.222Z,17.00
2019-05-19T15:40:17.734Z,16.80
2019-05-19T15:42:47.159Z,16.70
2019-05-19T15:45:16.691Z,16.60
2019-05-19T15:47:46.120Z,16.60
2019-05-19T15:50:15.884Z,16.30
2019-05-19T15:52:45.351Z,16.10
2019-05-19T15:55:15.327Z,16.00
2019-05-19T15:57:44.784Z,15.80
2019-05-19T16:00:14.602Z,15.80
2019-05-19T16:02:44.052Z,15.70
2019-05-19T16:05:14.906Z,15.90
2019-05-19T16:07:44.408Z,16.00
2019-05-19T16:10:14.416Z,16.00
2019-05-19T16:12:43.795Z,15.80
2019-05-19T16:15:14.269Z,15.60
2019-05-19T16:17:43.734Z,15.60
2019-05-19T16:20:15.079Z,15.30
2019-05-19T16:22:44.549Z,15.30
2019-05-19T16:25:14.267Z,15.30
2019-05-19T16:27:43.788Z,15.40
2019-05-19T16:30:13.785Z,15.50
2019-05-19T16:32:43.234Z,15.40
2019-05-19T16:35:13.132Z,15.50
2019-05-19T16:37:42.632Z,15.40
2019-05-19T16:40:12.846Z,15.30
2019-05-19T16:42:42.567Z,15.30
2019-05-19T16:45:12.370Z,15.20
2019-05-19T16:47:41.735Z,15.10
2019-05-19T16:50:12.556Z,15.00
2019-05-19T16:52:42.027Z,15.00
2019-05-19T16:55:26.163Z,15.10
2019-05-19T16:57:56.163Z,15.10
2019-05-19T17:00:27.520Z,15.10
2019-05-19T17:02:57.413Z,15.00
2019-05-19T17:05:26.779Z,15.10
2019-05-19T17:07:56.220Z,15.10
2019-05-19T17:10:26.015Z,14.90
2019-05-19T17:12:55.512Z,14.90
2019-05-19T17:15:25.338Z,14.80
2019-05-19T17:17:54.821Z,14.70
2019-05-19T17:20:24.727Z,14.50
2019-05-19T17:22:54.107Z,14.40
2019-05-19T17:25:23.614Z,14.40
2019-05-19T17:27:52.999Z,14.30
2019-05-19T17:30:23.352Z,14.30
2019-05-19T17:32:52.825Z,14.30
2019-05-19T17:35:22.243Z,14.20
2019-05-19T17:37:51.791Z,14.20
2019-05-19T17:40:21.700Z,14.10
2019-05-19T17:42:51.148Z,14.10
2019-05-19T17:45:21.042Z,14.00
2019-05-19T17:47:53.205Z,14.00
2019-05-19T17:50:33.151Z,13.90
2019-05-19T17:53:03.111Z,13.90
2019-05-19T17:55:34.459Z,13.80
2019-05-19T17:58:04.456Z,13.90
2019-05-19T18:00:37.271Z,13.80
2019-05-19T18:03:07.625Z,13.90
2019-05-19T18:05:37.522Z,13.90
2019-05-19T18:08:07.324Z,13.90
2019-05-19T18:10:36.809Z,13.80
2019-05-19T18:13:06.264Z,13.80
2019-05-19T18:15:37.053Z,13.80
2019-05-19T18:18:06.642Z,13.80
2019-05-19T18:20:36.353Z,13.90
2019-05-19T18:23:05.789Z,13.80
2019-05-19T18:25:35.290Z,13.70
2019-05-19T18:28:05.052Z,13.60
2019-05-19T18:30:34.492Z,13.60
2019-05-19T18:33:05.020Z,13.50
2019-05-19T18:35:34.377Z,13.50
2019-05-19T18:38:04.415Z,13.50
2019-05-19T18:40:33.798Z,13.50
2019-05-19T18:43:03.402Z,13.40
2019-05-19T18:45:32.918Z,13.40
2019-05-19T18:48:02.379Z,13.40
2019-05-19T18:50:31.949Z,13.40
2019-05-19T18:53:01.396Z,13.20
2019-05-19T18:55:34.521Z,13.20
2019-05-19T18:58:04.121Z,13.10
2019-05-19T19:00:36.067Z,13.20
2019-05-19T19:03:06.339Z,13.20
2019-05-19T19:05:35.789Z,13.30
2019-05-19T19:08:05.281Z,13.20
2019-05-19T19:10:34.737Z,13.20
2019-05-19T19:13:04.113Z,13.10
2019-05-19T19:15:33.479Z,13.10
2019-05-19T19:18:02.928Z,13.10
2019-05-19T19:20:32.601Z,13.10
2019-05-19T19:23:01.977Z,13.10
2019-05-19T19:25:31.509Z,13.00
2019-05-19T19:28:01.047Z,13.00
2019-05-19T19:30:31.764Z,12.90
2019-05-19T19:33:01.192Z,12.90
2019-05-19T19:35:38.730Z,12.90
2019-05-19T19:38:03.636Z,12.80
2019-05-19T19:40:33.177Z,12.70
2019-05-19T19:43:02.964Z,12.70
2019-05-19T19:45:32.432Z,12.80
2019-05-19T19:48:01.904Z,12.80
2019-05-19T19:50:31.362Z,12.80
2019-05-19T19:53:00.798Z,12.70
2019-05-19T19:55:30.538Z,12.70
2019-05-19T19:57:59.986Z,12.60
2019-05-19T20:00:38.701Z,12.60
2019-05-19T20:03:08.951Z,12.50
2019-05-19T20:05:42.785Z,12.50
2019-05-19T20:08:12.455Z,12.50
2019-05-19T20:10:42.203Z,12.50
2019-05-19T20:13:11.612Z,12.40
2019-05-19T20:15:41.036Z,12.30
2019-05-19T20:18:10.470Z,12.30
2019-05-19T20:20:39.954Z,12.40
2019-05-19T20:23:09.395Z,12.40
2019-05-19T20:25:39.042Z,12.40
2019-05-19T20:28:08.489Z,12.40
2019-05-19T20:30:38.009Z,12.30
2019-05-19T20:33:07.528Z,12.20
2019-05-19T20:35:36.910Z,12.30
2019-05-19T20:38:06.375Z,12.30
2019-05-19T20:40:35.820Z,12.30
2019-05-19T20:43:05.365Z,12.30
2019-05-19T20:45:34.876Z,12.30
2019-05-19T20:48:04.692Z,12.40
2019-05-19T20:50:35.722Z,12.40
2019-05-19T20:53:05.139Z,12.30
2019-05-19T20:55:34.660Z,12.20
2019-05-19T20:58:04.023Z,12.20
2019-05-19T21:00:33.460Z,12.20
2019-05-19T21:03:02.839Z,12.30
2019-05-19T21:05:32.284Z,12.20
2019-05-19T21:08:01.820Z,12.20
2019-05-19T21:10:31.315Z,12.20
2019-05-19T21:13:00.756Z,12.20
2019-05-19T21:15:30.131Z,12.20
2019-05-19T21:17:59.670Z,12.20
2019-05-19T21:20:29.189Z,12.20
2019-05-19T21:22:58.613Z,12.20
2019-05-19T21:25:27.980Z,12.20
2019-05-19T21:27:57.367Z,12.30
2019-05-19T21:30:26.783Z,12.20
2019-05-19T21:32:56.228Z,12.20
2019-05-19T21:35:25.614Z,12.10
2019-05-19T21:37:55.067Z,12.00
2019-05-19T21:40:24.436Z,12.00
2019-05-19T21:42:53.975Z,12.00
2019-05-19T21:45:23.345Z,12.00
2019-05-19T21:47:52.961Z,12.00
2019-05-19T21:50:22.528Z,11.90
2019-05-19T21:52:51.981Z,11.90
2019-05-19T21:55:21.415Z,11.90
2019-05-19T21:57:51.976Z,11.80
2019-05-19T22:00:23.660Z,11.90
2019-05-19T22:02:54.588Z,11.90
2019-05-19T22:05:23.955Z,11.90
2019-05-19T22:08:00.687Z,11.90
2019-05-19T22:10:30.043Z,11.90
2019-05-19T22:12:59.434Z,11.90
2019-05-19T22:15:28.980Z,11.90
2019-05-19T22:17:58.392Z,11.90
2019-05-19T22:20:27.845Z,11.80
2019-05-19T22:22:57.471Z,11.80
2019-05-19T22:25:26.899Z,11.80
2019-05-19T22:27:56.284Z,11.90
2019-05-19T22:30:25.747Z,11.80
2019-05-19T22:32:55.187Z,11.80
2019-05-19T22:35:24.615Z,11.80
2019-05-19T22:37:54.065Z,11.80
2019-05-19T22:40:23.420Z,11.80
2019-05-19T22:42:52.842Z,11.90
2019-05-19T22:45:22.339Z,11.90
2019-05-19T22:47:51.701Z,11.90
2019-05-19T22:50:21.309Z,11.80
2019-05-19T22:52:51.851Z,11.80
2019-05-19T22:55:21.224Z,11.80
2019-05-19T22:57:50.742Z,11.80
2019-05-19T23:00:20.884Z,11.80
2019-05-19T23:02:50.581Z,11.80
2019-05-19T23:05:20.487Z,11.90
2019-05-19T23:07:49.866Z,11.80
2019-05-19T23:10:19.962Z,11.80
2019-05-19T23:12:49.328Z,11.80
2019-05-19T23:15:19.676Z,11.80
2019-05-19T23:17:49.056Z,11.80
2019-05-19T23:20:18.791Z,11.80
2019-05-19T23:22:48.250Z,11.70
2019-05-19T23:25:17.716Z,11.70
2019-05-19T23:27:47.149Z,11.70
2019-05-19T23:30:16.652Z,11.60
2019-05-19T23:32:46.024Z,11.70
2019-05-19T23:35:16.023Z,11.70
2019-05-19T23:37:45.452Z,11.70
2019-05-19T23:40:15.040Z,11.70
2019-05-19T23:42:44.482Z,11.80
2019-05-19T23:45:14.191Z,11.80
2019-05-19T23:47:43.645Z,11.70
2019-05-19T23:50:13.771Z,11.70
2019-05-19T23:52:43.150Z,11.70
2019-05-19T23:55:13.250Z,11.70
2019-05-19T23:57:42.709Z,11.80
